sensor_id;sensor_type;location;lat;lon;timestamp;P1;durP1;ratioP1;P2;durP2;ratioP2
60076;SDS011;45950;45.208;20.374;2023-04-25T00:00:23;27.98;;;19.65;;
60076;SDS011;45950;45.208;20.374;2023-04-25T00:02:50;25.60;;;19.55;;
60076;SDS011;45950;45.208;20.374;2023-04-25T00:05:16;24.15;;;19.52;;
60076;SDS011;45950;45.208;20.374;2023-04-25T00:07:44;30.45;;;20.92;;
60076;SDS011;45950;45.208;20.374;2023-04-25T00:10:11;26.50;;;20.02;;
60076;SDS011;45950;45.208;20.374;2023-04-25T00:12:37;25.23;;;19.63;;
60076;SDS011;45950;45.208;20.374;2023-04-25T00:15:23;27.88;;;19.90;;
60076;SDS011;45950;45.208;20.374;2023-04-25T00:17:50;34.65;;;27.77;;
60076;SDS011;45950;45.208;20.374;2023-04-25T00:20:18;39.40;;;29.80;;
60076;SDS011;45950;45.208;20.374;2023-04-25T00:25:46;51.13;;;37.20;;
60076;SDS011;45950;45.208;20.374;2023-04-25T00:28:13;47.63;;;36.35;;
60076;SDS011;45950;45.208;20.374;2023-04-25T00:33:45;52.42;;;38.75;;
60076;SDS011;45950;45.208;20.374;2023-04-25T00:36:11;51.45;;;37.30;;
60076;SDS011;45950;45.208;20.374;2023-04-25T00:38:38;52.25;;;37.85;;
60076;SDS011;45950;45.208;20.374;2023-04-25T00:41:05;51.05;;;37.03;;
60076;SDS011;45950;45.208;20.374;2023-04-25T00:43:32;43.88;;;32.92;;
60076;SDS011;45950;45.208;20.374;2023-04-25T00:45:59;49.85;;;37.78;;
60076;SDS011;45950;45.208;20.374;2023-04-25T00:48:26;49.97;;;37.38;;
60076;SDS011;45950;45.208;20.374;2023-04-25T00:50:54;44.47;;;35.28;;
60076;SDS011;45950;45.208;20.374;2023-04-25T00:53:21;43.25;;;33.72;;
60076;SDS011;45950;45.208;20.374;2023-04-25T00:55:48;39.22;;;26.98;;
60076;SDS011;45950;45.208;20.374;2023-04-25T00:58:16;33.65;;;26.02;;
60076;SDS011;45950;45.208;20.374;2023-04-25T01:00:43;31.95;;;22.33;;
60076;SDS011;45950;45.208;20.374;2023-04-25T01:03:10;30.30;;;24.15;;
60076;SDS011;45950;45.208;20.374;2023-04-25T01:08:41;31.63;;;24.95;;
60076;SDS011;45950;45.208;20.374;2023-04-25T01:11:08;29.77;;;23.15;;
60076;SDS011;45950;45.208;20.374;2023-04-25T01:13:35;29.50;;;23.60;;
60076;SDS011;45950;45.208;20.374;2023-04-25T01:16:01;29.50;;;23.13;;
60076;SDS011;45950;45.208;20.374;2023-04-25T01:18:28;24.88;;;21.30;;
60076;SDS011;45950;45.208;20.374;2023-04-25T01:20:55;24.75;;;20.10;;
60076;SDS011;45950;45.208;20.374;2023-04-25T01:23:23;24.60;;;20.48;;
60076;SDS011;45950;45.208;20.374;2023-04-25T01:25:50;23.10;;;19.35;;
60076;SDS011;45950;45.208;20.374;2023-04-25T01:28:16;21.48;;;18.08;;
60076;SDS011;45950;45.208;20.374;2023-04-25T01:33:47;22.85;;;17.70;;
60076;SDS011;45950;45.208;20.374;2023-04-25T01:36:14;21.90;;;18.20;;
60076;SDS011;45950;45.208;20.374;2023-04-25T01:38:42;20.55;;;17.20;;
60076;SDS011;45950;45.208;20.374;2023-04-25T01:41:09;20.23;;;15.65;;
60076;SDS011;45950;45.208;20.374;2023-04-25T01:43:35;20.83;;;17.50;;
60076;SDS011;45950;45.208;20.374;2023-04-25T01:46:02;23.48;;;17.85;;
60076;SDS011;45950;45.208;20.374;2023-04-25T01:48:29;20.95;;;17.30;;
60076;SDS011;45950;45.208;20.374;2023-04-25T01:50:55;22.48;;;17.42;;
60076;SDS011;45950;45.208;20.374;2023-04-25T01:53:32;22.48;;;18.80;;
60076;SDS011;45950;45.208;20.374;2023-04-25T01:56:00;24.98;;;18.33;;
60076;SDS011;45950;45.208;20.374;2023-04-25T01:58:26;24.52;;;19.60;;
60076;SDS011;45950;45.208;20.374;2023-04-25T02:00:53;27.42;;;19.83;;
60076;SDS011;45950;45.208;20.374;2023-04-25T02:03:19;26.25;;;21.38;;
60076;SDS011;45950;45.208;20.374;2023-04-25T02:05:46;31.00;;;22.90;;
60076;SDS011;45950;45.208;20.374;2023-04-25T02:08:12;26.90;;;21.70;;
60076;SDS011;45950;45.208;20.374;2023-04-25T02:10:39;28.80;;;21.70;;
60076;SDS011;45950;45.208;20.374;2023-04-25T02:13:07;29.25;;;22.42;;
60076;SDS011;45950;45.208;20.374;2023-04-25T02:15:33;31.58;;;23.40;;
60076;SDS011;45950;45.208;20.374;2023-04-25T02:18:00;30.40;;;23.70;;
60076;SDS011;45950;45.208;20.374;2023-04-25T02:20:27;30.63;;;23.00;;
60076;SDS011;45950;45.208;20.374;2023-04-25T02:22:53;30.75;;;23.80;;
60076;SDS011;45950;45.208;20.374;2023-04-25T02:25:20;29.58;;;21.52;;
60076;SDS011;45950;45.208;20.374;2023-04-25T02:27:47;29.45;;;22.60;;
60076;SDS011;45950;45.208;20.374;2023-04-25T02:30:15;28.33;;;21.80;;
60076;SDS011;45950;45.208;20.374;2023-04-25T02:32:41;27.90;;;20.85;;
60076;SDS011;45950;45.208;20.374;2023-04-25T02:35:08;28.20;;;22.15;;
60076;SDS011;45950;45.208;20.374;2023-04-25T02:37:36;29.52;;;22.73;;
60076;SDS011;45950;45.208;20.374;2023-04-25T02:40:03;30.85;;;21.38;;
60076;SDS011;45950;45.208;20.374;2023-04-25T02:42:30;31.48;;;23.35;;
60076;SDS011;45950;45.208;20.374;2023-04-25T02:44:56;31.83;;;22.90;;
60076;SDS011;45950;45.208;20.374;2023-04-25T02:47:24;27.23;;;20.52;;
60076;SDS011;45950;45.208;20.374;2023-04-25T02:49:51;28.80;;;19.98;;
60076;SDS011;45950;45.208;20.374;2023-04-25T02:52:17;24.48;;;18.05;;
60076;SDS011;45950;45.208;20.374;2023-04-25T02:54:44;26.80;;;18.00;;
60076;SDS011;45950;45.208;20.374;2023-04-25T02:57:10;26.38;;;20.10;;
60076;SDS011;45950;45.208;20.374;2023-04-25T02:59:37;32.45;;;22.13;;
60076;SDS011;45950;45.208;20.374;2023-04-25T03:02:03;30.85;;;21.55;;
60076;SDS011;45950;45.208;20.374;2023-04-25T03:04:31;28.10;;;17.02;;
60076;SDS011;45950;45.208;20.374;2023-04-25T03:06:59;28.50;;;19.52;;
60076;SDS011;45950;45.208;20.374;2023-04-25T03:12:29;28.08;;;21.20;;
60076;SDS011;45950;45.208;20.374;2023-04-25T03:14:55;28.95;;;21.30;;
60076;SDS011;45950;45.208;20.374;2023-04-25T03:17:22;26.10;;;21.27;;
60076;SDS011;45950;45.208;20.374;2023-04-25T03:19:49;28.98;;;21.70;;
60076;SDS011;45950;45.208;20.374;2023-04-25T03:22:16;30.63;;;21.20;;
60076;SDS011;45950;45.208;20.374;2023-04-25T03:24:43;28.75;;;20.52;;
60076;SDS011;45950;45.208;20.374;2023-04-25T03:27:09;23.88;;;17.63;;
60076;SDS011;45950;45.208;20.374;2023-04-25T03:29:36;28.48;;;19.25;;
60076;SDS011;45950;45.208;20.374;2023-04-25T03:32:03;26.92;;;19.17;;
60076;SDS011;45950;45.208;20.374;2023-04-25T03:34:29;31.02;;;20.58;;
60076;SDS011;45950;45.208;20.374;2023-04-25T03:36:57;25.23;;;19.90;;
60076;SDS011;45950;45.208;20.374;2023-04-25T03:39:24;21.60;;;15.70;;
60076;SDS011;45950;45.208;20.374;2023-04-25T03:41:50;18.52;;;14.90;;
60076;SDS011;45950;45.208;20.374;2023-04-25T03:44:24;27.50;;;19.23;;
60076;SDS011;45950;45.208;20.374;2023-04-25T03:46:51;26.65;;;19.00;;
60076;SDS011;45950;45.208;20.374;2023-04-25T03:49:17;26.20;;;18.23;;
60076;SDS011;45950;45.208;20.374;2023-04-25T03:51:44;23.65;;;18.35;;
60076;SDS011;45950;45.208;20.374;2023-04-25T03:54:12;26.40;;;19.25;;
60076;SDS011;45950;45.208;20.374;2023-04-25T03:56:38;20.88;;;17.48;;
60076;SDS011;45950;45.208;20.374;2023-04-25T03:59:05;23.60;;;19.00;;
60076;SDS011;45950;45.208;20.374;2023-04-25T04:01:32;25.50;;;17.48;;
60076;SDS011;45950;45.208;20.374;2023-04-25T04:03:59;22.85;;;17.77;;
60076;SDS011;45950;45.208;20.374;2023-04-25T04:06:26;27.52;;;19.05;;
60076;SDS011;45950;45.208;20.374;2023-04-25T04:08:52;36.00;;;26.45;;
60076;SDS011;45950;45.208;20.374;2023-04-25T04:11:20;26.83;;;21.73;;
60076;SDS011;45950;45.208;20.374;2023-04-25T04:13:47;24.83;;;18.90;;
60076;SDS011;45950;45.208;20.374;2023-04-25T04:16:13;13.25;;;10.77;;
60076;SDS011;45950;45.208;20.374;2023-04-25T04:18:40;15.23;;;11.05;;
60076;SDS011;45950;45.208;20.374;2023-04-25T04:21:06;12.45;;;8.75;;
60076;SDS011;45950;45.208;20.374;2023-04-25T04:23:33;12.52;;;8.40;;
60076;SDS011;45950;45.208;20.374;2023-04-25T04:25:59;10.73;;;8.68;;
60076;SDS011;45950;45.208;20.374;2023-04-25T04:28:28;15.35;;;10.23;;
60076;SDS011;45950;45.208;20.374;2023-04-25T04:30:54;13.02;;;9.85;;
60076;SDS011;45950;45.208;20.374;2023-04-25T04:36:24;11.85;;;9.80;;
60076;SDS011;45950;45.208;20.374;2023-04-25T04:38:51;14.10;;;9.60;;
60076;SDS011;45950;45.208;20.374;2023-04-25T04:41:19;14.10;;;9.30;;
60076;SDS011;45950;45.208;20.374;2023-04-25T04:43:47;10.85;;;8.20;;
60076;SDS011;45950;45.208;20.374;2023-04-25T04:46:13;11.57;;;8.88;;
60076;SDS011;45950;45.208;20.374;2023-04-25T04:48:41;7.95;;;6.63;;
60076;SDS011;45950;45.208;20.374;2023-04-25T04:51:07;10.25;;;8.93;;
60076;SDS011;45950;45.208;20.374;2023-04-25T04:53:34;10.85;;;7.53;;
60076;SDS011;45950;45.208;20.374;2023-04-25T04:56:01;8.73;;;7.45;;
60076;SDS011;45950;45.208;20.374;2023-04-25T04:58:27;10.18;;;7.47;;
60076;SDS011;45950;45.208;20.374;2023-04-25T05:00:57;7.97;;;6.22;;
60076;SDS011;45950;45.208;20.374;2023-04-25T05:03:23;8.82;;;7.50;;
60076;SDS011;45950;45.208;20.374;2023-04-25T05:05:50;11.60;;;9.00;;
60076;SDS011;45950;45.208;20.374;2023-04-25T05:08:16;7.75;;;6.22;;
60076;SDS011;45950;45.208;20.374;2023-04-25T05:10:56;8.80;;;6.57;;
60076;SDS011;45950;45.208;20.374;2023-04-25T05:13:23;9.50;;;7.45;;
60076;SDS011;45950;45.208;20.374;2023-04-25T05:15:49;8.75;;;7.25;;
60076;SDS011;45950;45.208;20.374;2023-04-25T05:18:24;7.32;;;5.78;;
60076;SDS011;45950;45.208;20.374;2023-04-25T05:20:51;9.77;;;7.63;;
60076;SDS011;45950;45.208;20.374;2023-04-25T05:23:18;8.90;;;6.55;;
60076;SDS011;45950;45.208;20.374;2023-04-25T05:25:45;6.88;;;5.53;;
60076;SDS011;45950;45.208;20.374;2023-04-25T05:28:12;8.60;;;6.40;;
60076;SDS011;45950;45.208;20.374;2023-04-25T05:30:39;12.60;;;8.55;;
60076;SDS011;45950;45.208;20.374;2023-04-25T05:33:11;9.88;;;6.65;;
60076;SDS011;45950;45.208;20.374;2023-04-25T05:35:39;8.10;;;5.45;;
60076;SDS011;45950;45.208;20.374;2023-04-25T05:38:06;7.80;;;5.55;;
60076;SDS011;45950;45.208;20.374;2023-04-25T05:43:25;8.98;;;5.72;;
60076;SDS011;45950;45.208;20.374;2023-04-25T05:45:52;10.05;;;6.20;;
60076;SDS011;45950;45.208;20.374;2023-04-25T05:48:19;11.35;;;7.10;;
60076;SDS011;45950;45.208;20.374;2023-04-25T05:50:47;7.22;;;5.65;;
60076;SDS011;45950;45.208;20.374;2023-04-25T05:53:13;15.32;;;9.30;;
60076;SDS011;45950;45.208;20.374;2023-04-25T05:55:40;9.13;;;6.20;;
60076;SDS011;45950;45.208;20.374;2023-04-25T05:58:07;10.35;;;5.88;;
60076;SDS011;45950;45.208;20.374;2023-04-25T06:00:33;7.65;;;5.97;;
60076;SDS011;45950;45.208;20.374;2023-04-25T06:03:00;9.82;;;7.63;;
60076;SDS011;45950;45.208;20.374;2023-04-25T06:05:27;9.30;;;6.63;;
60076;SDS011;45950;45.208;20.374;2023-04-25T06:07:55;10.00;;;7.88;;
60076;SDS011;45950;45.208;20.374;2023-04-25T06:10:22;9.82;;;8.23;;
60076;SDS011;45950;45.208;20.374;2023-04-25T06:12:48;11.07;;;8.23;;
60076;SDS011;45950;45.208;20.374;2023-04-25T06:15:15;7.78;;;6.22;;
60076;SDS011;45950;45.208;20.374;2023-04-25T06:17:42;9.63;;;5.75;;
60076;SDS011;45950;45.208;20.374;2023-04-25T06:20:08;9.02;;;6.57;;
60076;SDS011;45950;45.208;20.374;2023-04-25T06:22:35;10.02;;;6.70;;
60076;SDS011;45950;45.208;20.374;2023-04-25T06:25:03;8.20;;;6.38;;
60076;SDS011;45950;45.208;20.374;2023-04-25T06:27:30;7.80;;;6.47;;
60076;SDS011;45950;45.208;20.374;2023-04-25T06:29:56;7.70;;;6.03;;
60076;SDS011;45950;45.208;20.374;2023-04-25T06:32:23;7.07;;;6.38;;
60076;SDS011;45950;45.208;20.374;2023-04-25T06:34:50;9.10;;;6.95;;
60076;SDS011;45950;45.208;20.374;2023-04-25T06:37:23;9.45;;;6.22;;
60076;SDS011;45950;45.208;20.374;2023-04-25T06:39:49;13.85;;;8.93;;
60076;SDS011;45950;45.208;20.374;2023-04-25T06:42:17;11.30;;;7.45;;
60076;SDS011;45950;45.208;20.374;2023-04-25T06:44:44;15.63;;;9.10;;
60076;SDS011;45950;45.208;20.374;2023-04-25T06:47:10;13.07;;;9.45;;
60076;SDS011;45950;45.208;20.374;2023-04-25T06:49:37;9.25;;;7.45;;
60076;SDS011;45950;45.208;20.374;2023-04-25T06:52:21;11.40;;;7.93;;
60076;SDS011;45950;45.208;20.374;2023-04-25T06:54:48;7.05;;;5.72;;
60076;SDS011;45950;45.208;20.374;2023-04-25T06:57:14;6.65;;;5.00;;
60076;SDS011;45950;45.208;20.374;2023-04-25T06:59:42;9.63;;;6.75;;
60076;SDS011;45950;45.208;20.374;2023-04-25T07:02:09;8.35;;;6.07;;
60076;SDS011;45950;45.208;20.374;2023-04-25T07:04:36;8.30;;;6.40;;
60076;SDS011;45950;45.208;20.374;2023-04-25T07:07:02;8.73;;;6.30;;
60076;SDS011;45950;45.208;20.374;2023-04-25T07:09:29;7.53;;;5.97;;
60076;SDS011;45950;45.208;20.374;2023-04-25T07:11:58;7.22;;;5.15;;
60076;SDS011;45950;45.208;20.374;2023-04-25T07:14:26;6.22;;;5.60;;
60076;SDS011;45950;45.208;20.374;2023-04-25T07:16:56;11.90;;;10.15;;
60076;SDS011;45950;45.208;20.374;2023-04-25T07:19:23;42.42;;;28.40;;
60076;SDS011;45950;45.208;20.374;2023-04-25T07:21:51;26.17;;;19.65;;
60076;SDS011;45950;45.208;20.374;2023-04-25T07:24:22;8.55;;;7.57;;
60076;SDS011;45950;45.208;20.374;2023-04-25T07:27:00;9.00;;;6.97;;
60076;SDS011;45950;45.208;20.374;2023-04-25T07:29:27;9.98;;;6.88;;
60076;SDS011;45950;45.208;20.374;2023-04-25T07:31:55;8.90;;;7.13;;
60076;SDS011;45950;45.208;20.374;2023-04-25T07:34:21;29.88;;;20.13;;
60076;SDS011;45950;45.208;20.374;2023-04-25T07:36:48;9.88;;;7.95;;
60076;SDS011;45950;45.208;20.374;2023-04-25T07:39:14;7.05;;;6.13;;
60076;SDS011;45950;45.208;20.374;2023-04-25T07:41:41;9.00;;;6.72;;
60076;SDS011;45950;45.208;20.374;2023-04-25T07:44:09;7.85;;;5.72;;
60076;SDS011;45950;45.208;20.374;2023-04-25T07:46:35;7.25;;;6.32;;
60076;SDS011;45950;45.208;20.374;2023-04-25T07:49:02;7.70;;;5.65;;
60076;SDS011;45950;45.208;20.374;2023-04-25T07:51:29;7.90;;;7.03;;
60076;SDS011;45950;45.208;20.374;2023-04-25T07:53:56;8.77;;;6.30;;
60076;SDS011;45950;45.208;20.374;2023-04-25T07:56:23;7.25;;;5.30;;
60076;SDS011;45950;45.208;20.374;2023-04-25T07:58:49;6.38;;;4.30;;
60076;SDS011;45950;45.208;20.374;2023-04-25T08:01:17;5.47;;;4.55;;
60076;SDS011;45950;45.208;20.374;2023-04-25T08:03:46;6.90;;;4.55;;
60076;SDS011;45950;45.208;20.374;2023-04-25T08:06:13;6.40;;;4.30;;
60076;SDS011;45950;45.208;20.374;2023-04-25T08:08:39;7.53;;;4.82;;
60076;SDS011;45950;45.208;20.374;2023-04-25T08:11:06;6.30;;;5.40;;
60076;SDS011;45950;45.208;20.374;2023-04-25T08:13:32;5.85;;;5.25;;
60076;SDS011;45950;45.208;20.374;2023-04-25T08:16:00;15.65;;;11.50;;
60076;SDS011;45950;45.208;20.374;2023-04-25T08:18:28;7.10;;;5.07;;
60076;SDS011;45950;45.208;20.374;2023-04-25T08:20:55;8.73;;;4.75;;
60076;SDS011;45950;45.208;20.374;2023-04-25T08:23:22;9.82;;;6.57;;
60076;SDS011;45950;45.208;20.374;2023-04-25T08:25:49;9.63;;;6.22;;
60076;SDS011;45950;45.208;20.374;2023-04-25T08:28:15;12.00;;;7.45;;
60076;SDS011;45950;45.208;20.374;2023-04-25T08:30:42;17.08;;;9.35;;
60076;SDS011;45950;45.208;20.374;2023-04-25T08:33:08;9.57;;;6.82;;
60076;SDS011;45950;45.208;20.374;2023-04-25T08:35:37;6.75;;;5.82;;
60076;SDS011;45950;45.208;20.374;2023-04-25T08:38:04;7.15;;;4.30;;
60076;SDS011;45950;45.208;20.374;2023-04-25T08:40:30;8.10;;;5.13;;
60076;SDS011;45950;45.208;20.374;2023-04-25T08:43:01;6.25;;;4.40;;
60076;SDS011;45950;45.208;20.374;2023-04-25T08:45:30;6.68;;;4.65;;
60076;SDS011;45950;45.208;20.374;2023-04-25T08:47:57;4.70;;;3.88;;
60076;SDS011;45950;45.208;20.374;2023-04-25T08:50:25;5.25;;;4.72;;
60076;SDS011;45950;45.208;20.374;2023-04-25T08:52:53;6.97;;;4.15;;
60076;SDS011;45950;45.208;20.374;2023-04-25T08:55:20;5.68;;;4.60;;
60076;SDS011;45950;45.208;20.374;2023-04-25T08:57:47;4.88;;;3.42;;
60076;SDS011;45950;45.208;20.374;2023-04-25T09:00:14;5.53;;;4.28;;
60076;SDS011;45950;45.208;20.374;2023-04-25T09:02:41;4.68;;;3.97;;
60076;SDS011;45950;45.208;20.374;2023-04-25T09:05:12;10.30;;;7.63;;
60076;SDS011;45950;45.208;20.374;2023-04-25T09:07:39;7.03;;;5.95;;
60076;SDS011;45950;45.208;20.374;2023-04-25T09:10:07;9.02;;;5.65;;
60076;SDS011;45950;45.208;20.374;2023-04-25T09:12:34;13.10;;;8.00;;
60076;SDS011;45950;45.208;20.374;2023-04-25T09:15:05;9.07;;;5.70;;
60076;SDS011;45950;45.208;20.374;2023-04-25T09:17:34;7.43;;;5.40;;
60076;SDS011;45950;45.208;20.374;2023-04-25T09:20:05;16.13;;;8.82;;
60076;SDS011;45950;45.208;20.374;2023-04-25T09:22:32;12.70;;;6.50;;
60076;SDS011;45950;45.208;20.374;2023-04-25T09:24:59;8.30;;;4.25;;
60076;SDS011;45950;45.208;20.374;2023-04-25T09:27:29;10.75;;;4.32;;
60076;SDS011;45950;45.208;20.374;2023-04-25T09:29:56;8.35;;;5.30;;
60076;SDS011;45950;45.208;20.374;2023-04-25T09:32:23;12.43;;;6.60;;
60076;SDS011;45950;45.208;20.374;2023-04-25T09:34:51;6.07;;;4.13;;
60076;SDS011;45950;45.208;20.374;2023-04-25T09:37:27;24.25;;;10.50;;
60076;SDS011;45950;45.208;20.374;2023-04-25T09:39:54;12.70;;;6.88;;
60076;SDS011;45950;45.208;20.374;2023-04-25T09:42:22;9.75;;;5.40;;
60076;SDS011;45950;45.208;20.374;2023-04-25T09:44:51;15.20;;;6.93;;
60076;SDS011;45950;45.208;20.374;2023-04-25T09:47:17;11.07;;;5.72;;
60076;SDS011;45950;45.208;20.374;2023-04-25T09:49:46;21.38;;;9.65;;
60076;SDS011;45950;45.208;20.374;2023-04-25T09:52:13;16.42;;;8.38;;
60076;SDS011;45950;45.208;20.374;2023-04-25T09:54:40;15.00;;;8.05;;
60076;SDS011;45950;45.208;20.374;2023-04-25T09:57:10;12.90;;;6.85;;
60076;SDS011;45950;45.208;20.374;2023-04-25T09:59:38;6.55;;;4.47;;
60076;SDS011;45950;45.208;20.374;2023-04-25T10:02:07;5.78;;;4.25;;
60076;SDS011;45950;45.208;20.374;2023-04-25T10:04:34;5.60;;;3.90;;
60076;SDS011;45950;45.208;20.374;2023-04-25T10:07:01;4.85;;;3.70;;
60076;SDS011;45950;45.208;20.374;2023-04-25T10:09:29;8.07;;;3.90;;
60076;SDS011;45950;45.208;20.374;2023-04-25T10:11:58;5.70;;;3.85;;
60076;SDS011;45950;45.208;20.374;2023-04-25T10:14:26;4.90;;;4.00;;
60076;SDS011;45950;45.208;20.374;2023-04-25T10:16:53;9.05;;;5.75;;
60076;SDS011;45950;45.208;20.374;2023-04-25T10:19:22;4.88;;;3.50;;
60076;SDS011;45950;45.208;20.374;2023-04-25T10:21:54;4.78;;;3.70;;
60076;SDS011;45950;45.208;20.374;2023-04-25T10:24:21;5.50;;;3.45;;
60076;SDS011;45950;45.208;20.374;2023-04-25T10:26:48;3.90;;;3.17;;
60076;SDS011;45950;45.208;20.374;2023-04-25T10:29:22;3.85;;;3.13;;
60076;SDS011;45950;45.208;20.374;2023-04-25T10:31:49;5.65;;;3.38;;
60076;SDS011;45950;45.208;20.374;2023-04-25T10:34:15;3.85;;;2.85;;
60076;SDS011;45950;45.208;20.374;2023-04-25T10:36:50;3.97;;;3.35;;
60076;SDS011;45950;45.208;20.374;2023-04-25T10:39:22;5.97;;;2.70;;
60076;SDS011;45950;45.208;20.374;2023-04-25T10:41:52;3.28;;;2.80;;
60076;SDS011;45950;45.208;20.374;2023-04-25T10:44:19;6.50;;;3.03;;
60076;SDS011;45950;45.208;20.374;2023-04-25T10:46:46;3.42;;;2.55;;
60076;SDS011;45950;45.208;20.374;2023-04-25T10:49:28;3.88;;;2.90;;
60076;SDS011;45950;45.208;20.374;2023-04-25T10:54:41;4.10;;;2.95;;
60076;SDS011;45950;45.208;20.374;2023-04-25T10:59:50;4.53;;;2.78;;
60076;SDS011;45950;45.208;20.374;2023-04-25T11:02:30;4.18;;;2.50;;
60076;SDS011;45950;45.208;20.374;2023-04-25T11:04:56;3.55;;;2.40;;
60076;SDS011;45950;45.208;20.374;2023-04-25T11:07:26;6.47;;;4.40;;
60076;SDS011;45950;45.208;20.374;2023-04-25T11:09:57;6.90;;;4.15;;
60076;SDS011;45950;45.208;20.374;2023-04-25T11:12:26;5.85;;;3.60;;
60076;SDS011;45950;45.208;20.374;2023-04-25T11:14:58;4.35;;;2.60;;
60076;SDS011;45950;45.208;20.374;2023-04-25T11:17:27;4.68;;;3.42;;
60076;SDS011;45950;45.208;20.374;2023-04-25T11:19:54;4.25;;;2.90;;
60076;SDS011;45950;45.208;20.374;2023-04-25T11:22:21;4.32;;;3.05;;
60076;SDS011;45950;45.208;20.374;2023-04-25T11:24:47;5.45;;;3.58;;
60076;SDS011;45950;45.208;20.374;2023-04-25T11:27:15;7.95;;;5.40;;
60076;SDS011;45950;45.208;20.374;2023-04-25T11:29:42;4.95;;;3.75;;
60076;SDS011;45950;45.208;20.374;2023-04-25T11:32:08;9.55;;;5.22;;
60076;SDS011;45950;45.208;20.374;2023-04-25T11:34:36;7.63;;;4.03;;
60076;SDS011;45950;45.208;20.374;2023-04-25T11:37:03;5.43;;;3.95;;
60076;SDS011;45950;45.208;20.374;2023-04-25T11:39:29;7.20;;;3.88;;
60076;SDS011;45950;45.208;20.374;2023-04-25T11:42:01;4.63;;;3.13;;
60076;SDS011;45950;45.208;20.374;2023-04-25T11:44:29;6.20;;;3.88;;
60076;SDS011;45950;45.208;20.374;2023-04-25T11:46:56;6.65;;;4.40;;
60076;SDS011;45950;45.208;20.374;2023-04-25T11:49:22;7.40;;;4.00;;
60076;SDS011;45950;45.208;20.374;2023-04-25T11:51:50;4.50;;;3.50;;
60076;SDS011;45950;45.208;20.374;2023-04-25T11:54:16;4.90;;;2.97;;
60076;SDS011;45950;45.208;20.374;2023-04-25T11:56:44;14.68;;;6.78;;
60076;SDS011;45950;45.208;20.374;2023-04-25T11:59:11;10.45;;;5.47;;
60076;SDS011;45950;45.208;20.374;2023-04-25T12:01:39;5.00;;;2.60;;
60076;SDS011;45950;45.208;20.374;2023-04-25T12:04:10;6.13;;;3.60;;
60076;SDS011;45950;45.208;20.374;2023-04-25T12:06:37;5.10;;;2.88;;
60076;SDS011;45950;45.208;20.374;2023-04-25T12:09:04;7.13;;;3.65;;
60076;SDS011;45950;45.208;20.374;2023-04-25T12:11:31;17.50;;;5.18;;
60076;SDS011;45950;45.208;20.374;2023-04-25T12:14:02;20.15;;;14.60;;
60076;SDS011;45950;45.208;20.374;2023-04-25T12:16:29;8.02;;;4.22;;
60076;SDS011;45950;45.208;20.374;2023-04-25T12:18:57;4.18;;;2.95;;
60076;SDS011;45950;45.208;20.374;2023-04-25T12:21:27;3.67;;;3.03;;
60076;SDS011;45950;45.208;20.374;2023-04-25T12:23:55;3.83;;;2.97;;
60076;SDS011;45950;45.208;20.374;2023-04-25T12:26:22;9.38;;;5.20;;
60076;SDS011;45950;45.208;20.374;2023-04-25T12:28:48;3.65;;;2.22;;
60076;SDS011;45950;45.208;20.374;2023-04-25T12:31:15;3.25;;;2.58;;
60076;SDS011;45950;45.208;20.374;2023-04-25T12:33:41;4.38;;;2.30;;
60076;SDS011;45950;45.208;20.374;2023-04-25T12:36:14;4.10;;;2.80;;
60076;SDS011;45950;45.208;20.374;2023-04-25T12:38:42;4.63;;;2.70;;
60076;SDS011;45950;45.208;20.374;2023-04-25T12:41:09;3.95;;;2.85;;
60076;SDS011;45950;45.208;20.374;2023-04-25T12:43:35;6.43;;;2.78;;
60076;SDS011;45950;45.208;20.374;2023-04-25T12:46:02;5.40;;;2.88;;
60076;SDS011;45950;45.208;20.374;2023-04-25T12:48:29;5.88;;;3.40;;
60076;SDS011;45950;45.208;20.374;2023-04-25T12:50:55;5.93;;;2.72;;
60076;SDS011;45950;45.208;20.374;2023-04-25T12:53:23;3.55;;;2.08;;
60076;SDS011;45950;45.208;20.374;2023-04-25T12:55:50;2.58;;;1.80;;
60076;SDS011;45950;45.208;20.374;2023-04-25T12:58:17;3.22;;;2.20;;
60076;SDS011;45950;45.208;20.374;2023-04-25T13:00:44;2.70;;;2.35;;
60076;SDS011;45950;45.208;20.374;2023-04-25T13:03:17;5.38;;;2.22;;
60076;SDS011;45950;45.208;20.374;2023-04-25T13:05:43;4.18;;;2.28;;
60076;SDS011;45950;45.208;20.374;2023-04-25T13:08:10;3.53;;;2.35;;
60076;SDS011;45950;45.208;20.374;2023-04-25T13:10:39;6.25;;;2.35;;
60076;SDS011;45950;45.208;20.374;2023-04-25T13:13:05;3.92;;;1.98;;
60076;SDS011;45950;45.208;20.374;2023-04-25T13:15:32;2.55;;;1.80;;
60076;SDS011;45950;45.208;20.374;2023-04-25T13:17:58;2.83;;;2.28;;
60076;SDS011;45950;45.208;20.374;2023-04-25T13:20:25;5.05;;;2.60;;
60076;SDS011;45950;45.208;20.374;2023-04-25T13:22:52;3.20;;;2.80;;
60076;SDS011;45950;45.208;20.374;2023-04-25T13:25:18;4.15;;;2.65;;
60076;SDS011;45950;45.208;20.374;2023-04-25T13:27:48;3.17;;;2.30;;
60076;SDS011;45950;45.208;20.374;2023-04-25T13:30:14;2.92;;;2.50;;
60076;SDS011;45950;45.208;20.374;2023-04-25T13:32:41;4.57;;;3.10;;
60076;SDS011;45950;45.208;20.374;2023-04-25T13:35:08;4.75;;;2.70;;
60076;SDS011;45950;45.208;20.374;2023-04-25T13:37:35;3.85;;;2.17;;
60076;SDS011;45950;45.208;20.374;2023-04-25T13:40:02;3.92;;;2.60;;
60076;SDS011;45950;45.208;20.374;2023-04-25T13:42:30;4.28;;;1.90;;
60076;SDS011;45950;45.208;20.374;2023-04-25T13:44:58;3.70;;;1.70;;
60076;SDS011;45950;45.208;20.374;2023-04-25T13:47:25;4.78;;;2.72;;
60076;SDS011;45950;45.208;20.374;2023-04-25T13:49:51;4.15;;;2.60;;
60076;SDS011;45950;45.208;20.374;2023-04-25T13:52:18;6.15;;;2.75;;
60076;SDS011;45950;45.208;20.374;2023-04-25T13:54:45;3.75;;;2.28;;
60076;SDS011;45950;45.208;20.374;2023-04-25T13:57:11;3.65;;;2.40;;
60076;SDS011;45950;45.208;20.374;2023-04-25T13:59:38;3.83;;;2.50;;
60076;SDS011;45950;45.208;20.374;2023-04-25T14:02:12;3.97;;;2.58;;
60076;SDS011;45950;45.208;20.374;2023-04-25T14:04:40;4.38;;;2.50;;
60076;SDS011;45950;45.208;20.374;2023-04-25T14:07:07;3.20;;;2.17;;
60076;SDS011;45950;45.208;20.374;2023-04-25T14:09:33;2.28;;;1.80;;
60076;SDS011;45950;45.208;20.374;2023-04-25T14:12:00;2.70;;;1.98;;
60076;SDS011;45950;45.208;20.374;2023-04-25T14:14:27;5.15;;;1.80;;
60076;SDS011;45950;45.208;20.374;2023-04-25T14:16:53;4.50;;;1.83;;
60076;SDS011;45950;45.208;20.374;2023-04-25T14:19:21;2.83;;;1.95;;
60076;SDS011;45950;45.208;20.374;2023-04-25T14:21:48;2.83;;;1.88;;
60076;SDS011;45950;45.208;20.374;2023-04-25T14:24:14;2.80;;;2.17;;
60076;SDS011;45950;45.208;20.374;2023-04-25T14:26:41;3.67;;;2.05;;
60076;SDS011;45950;45.208;20.374;2023-04-25T14:29:08;2.88;;;2.03;;
60076;SDS011;45950;45.208;20.374;2023-04-25T14:31:37;3.35;;;2.05;;
60076;SDS011;45950;45.208;20.374;2023-04-25T14:34:10;2.30;;;1.73;;
60076;SDS011;45950;45.208;20.374;2023-04-25T14:36:38;3.88;;;2.42;;
60076;SDS011;45950;45.208;20.374;2023-04-25T14:39:05;3.30;;;2.35;;
60076;SDS011;45950;45.208;20.374;2023-04-25T14:41:32;4.72;;;1.98;;
60076;SDS011;45950;45.208;20.374;2023-04-25T14:43:59;2.60;;;1.90;;
60076;SDS011;45950;45.208;20.374;2023-04-25T14:46:25;3.65;;;1.80;;
60076;SDS011;45950;45.208;20.374;2023-04-25T14:48:52;3.08;;;1.88;;
60076;SDS011;45950;45.208;20.374;2023-04-25T14:51:20;3.55;;;2.08;;
60076;SDS011;45950;45.208;20.374;2023-04-25T14:53:48;3.22;;;2.08;;